Dollard-Des Ormeaux, Quebec

1:10 AM EDT on 四月 27, 2017 (GMT -0400)
Roxboro Quebec Eastern Canada | | Change Station

高度 80 ft 45.50 °N, 73.80 °W | Updated 14 seconds ago

だいたい曇
だいたい曇
53.5 °F
体感気温 53.5 °F
4.0
風 変数 風 から 北東

今日
高い -- | 低 -- °F
--% 降水確率
昨日
高い -- | 低 -- °F
Precip. -- インチ
気圧 29.83 インチ
視程 5.0 マイル
だいたい曇 400 ft
露点温度 52 °F
湿度 95%
降水 0.00 インチ
積雪深 利用不可。
5:49 AM 7:57 PM
新月, 1% visible
METAR CYUL 270500Z 03011KT 5SM BR BKN004 12/11 A2982 RMK SF6 SLP099
気圧 29.83 インチ
視程 5.0 マイル
だいたい曇 400 ft
露点温度 52 °F
湿度 95%
降水 0.00 インチ
積雪深 利用不可。
5:49 AM 7:57 PM
新月, 1% visible
METAR CYUL 270500Z 03011KT 5SM BR BKN004 12/11 A2982 RMK SF6 SLP099

Get Severe Weather Alerts

Thanks for signing up!

Be on the lookout for a verification email in your inbox.

You'll start receiving the daily forecast at 8 AM.

×

10-Day Weather Forecast

Almanac

天文

Apr. 27, 2017 入り
実時間
常用薄明
航海薄明
天文薄明
可視光の長さ
可照時間
Tomorrow will be .
, % of the Moon is Illuminated

今日の極値

Country Highs Country Lows

Community

WunderBlog® & News

Nearby

空気品質

  空気品質 大気質指数 汚染物質
Not available.

積雪深

Station Depth 高度

地震活動

Distance Mag. Time & Date
Minimum magnitude displayed is 2.5.

沿岸の水温

地名 気温

Stations

最寄りの気象観測所

観測所位置 温度 体感気温(寒さ) 露点温度 湿度 Precip. 高度 更新日時 タイプする
                   

Watches & Warnings

There are currently no watches in effect.